Time;durP1;ratioP1;P1;durP2;ratioP2;P2;SDS_P1;SDS_P2;PMS_P1;PMS_P2;Temp;Humidity;BMP_temperature;BMP_pressure;BME280_temperature;BME280_humidity;BME280_pressure;Samples;Min_cycle;Max_cycle;Signal;HPM_P1;HPM_P2
2021/07/27 00:00:57;;;;;;;8.25;3.20;;;16.40;99.90;;;;;;5082020;28;20095;-83
2021/07/27 00:03:25;;;;;;;8.30;3.20;;;16.50;99.90;;;;;;5059480;28;20060;-82
2021/07/27 00:05:52;;;;;;;5.57;3.00;;;16.50;99.90;;;;;;5060488;28;20117;-83
2021/07/27 00:08:18;;;;;;;5.90;3.42;;;16.50;99.90;;;;;;5062189;28;20032;-83
2021/07/27 00:10:44;;;;;;;7.45;3.15;;;16.50;99.90;;;;;;5059452;28;20032;-82
2021/07/27 00:13:09;;;;;;;6.70;3.60;;;16.50;99.90;;;;;;5044111;28;20171;-82
2021/07/27 00:15:35;;;;;;;5.97;3.10;;;16.50;99.90;;;;;;5043747;28;20041;-83
2021/07/27 00:18:01;;;;;;;9.07;3.50;;;16.50;99.90;;;;;;5043685;28;20371;-83
2021/07/27 00:20:26;;;;;;;8.63;3.58;;;16.50;99.90;;;;;;5061812;28;20032;-82
2021/07/27 00:22:52;;;;;;;7.72;3.60;;;16.60;99.90;;;;;;5062156;28;20060;-82
2021/07/27 00:25:18;;;;;;;8.98;3.38;;;16.60;99.90;;;;;;5043459;28;20469;-82
2021/07/27 00:27:44;;;;;;;9.02;3.13;;;16.50;99.90;;;;;;5042918;28;20120;-83
2021/07/27 00:30:11;;;;;;;9.23;3.45;;;16.50;99.90;;;;;;5045120;28;20032;-82
2021/07/27 00:32:38;;;;;;;8.13;3.25;;;16.50;99.90;;;;;;5061735;28;20040;-83
2021/07/27 00:35:04;;;;;;;13.73;3.63;;;16.50;99.90;;;;;;5043855;28;20063;-83
2021/07/27 00:37:32;;;;;;;8.65;3.38;;;16.50;99.90;;;;;;5043482;28;20036;-83
2021/07/27 00:39:58;;;;;;;10.20;3.42;;;16.50;99.90;;;;;;5061851;28;20041;-83
2021/07/27 00:42:24;;;;;;;7.57;3.63;;;16.40;99.90;;;;;;5066963;28;20067;-82
2021/07/27 00:44:50;;;;;;;10.23;3.55;;;16.40;99.90;;;;;;5105845;22;20070;-85
2021/07/27 00:47:16;;;;;;;8.27;3.30;;;16.40;99.90;;;;;;5113760;28;20024;-85
2021/07/27 00:49:42;;;;;;;8.68;3.33;;;16.40;99.90;;;;;;5111544;28;20471;-85
2021/07/27 00:52:08;;;;;;;8.00;3.28;;;16.40;99.90;;;;;;5112853;28;20046;-85
2021/07/27 00:54:36;;;;;;;7.28;3.65;;;16.40;99.90;;;;;;5111989;28;20076;-85
2021/07/27 00:57:02;;;;;;;7.28;3.65;;;16.40;99.90;;;;;;5101143;28;20111;-86
2021/07/27 00:59:28;;;;;;;6.88;3.35;;;16.40;99.90;;;;;;5109998;28;20036;-85
2021/07/27 01:01:54;;;;;;;9.32;3.40;;;16.40;99.90;;;;;;5113282;28;20030;-85
2021/07/27 01:04:19;;;;;;;6.13;3.40;;;16.50;99.90;;;;;;5100566;28;20029;-85
2021/07/27 01:06:46;;;;;;;8.07;3.67;;;16.40;99.90;;;;;;5088568;28;20035;-85
2021/07/27 01:09:12;;;;;;;8.48;3.60;;;16.40;99.90;;;;;;5111725;28;20055;-85
2021/07/27 01:11:41;;;;;;;8.90;3.58;;;16.20;99.90;;;;;;5112574;28;20019;-85
2021/07/27 01:14:11;;;;;;;7.28;3.78;;;16.40;99.90;;;;;;5096342;28;20028;-85
2021/07/27 01:16:37;;;;;;;9.80;3.50;;;16.40;99.90;;;;;;5091036;28;20032;-86
2021/07/27 01:38:13;;;;;;;10.35;3.80;;;15.90;99.90;;;;;;5071656;28;20032;-85
2021/07/27 01:43:35;;;;;;;10.63;3.95;;;15.80;99.90;;;;;;5033894;28;20033;-85
2021/07/27 01:46:01;;;;;;;9.27;3.72;;;15.80;99.90;;;;;;5071391;28;20112;-85
2021/07/27 01:48:26;;;;;;;12.77;3.50;;;15.80;99.90;;;;;;5071037;28;20099;-85
2021/07/27 01:50:52;;;;;;;7.72;3.92;;;15.80;99.90;;;;;;5090592;28;20020;-86
2021/07/27 01:53:27;;;;;;;10.63;4.22;;;15.90;99.90;;;;;;5092072;28;20024;-85
2021/07/27 01:55:55;;;;;;;8.00;3.60;;;15.90;99.90;;;;;;5090622;28;20123;-85
2021/07/27 01:58:20;;;;;;;8.75;3.90;;;16.00;99.90;;;;;;5101406;28;20035;-85
2021/07/27 02:00:46;;;;;;;7.70;4.15;;;15.90;99.90;;;;;;5110402;28;20027;-85
2021/07/27 02:03:16;;;;;;;6.70;3.97;;;16.00;99.90;;;;;;5112686;28;20030;-87
2021/07/27 02:05:43;;;;;;;6.75;3.90;;;15.90;99.90;;;;;;5087189;28;20398;-85
2021/07/27 02:08:09;;;;;;;7.80;4.00;;;15.90;99.90;;;;;;5074995;28;20017;-86
2021/07/27 02:10:35;;;;;;;7.15;4.93;;;15.90;99.90;;;;;;5074044;28;20031;-85
2021/07/27 02:13:11;;;;;;;9.18;4.53;;;15.90;99.90;;;;;;5074864;28;20035;-85
2021/07/27 02:15:41;;;;;;;8.05;4.28;;;15.90;99.90;;;;;;5073975;28;20025;-85
2021/07/27 02:18:07;;;;;;;6.07;3.70;;;15.90;99.90;;;;;;5074995;28;20032;-85
2021/07/27 02:20:33;;;;;;;10.60;5.50;;;15.90;99.90;;;;;;5074053;28;20024;-86
2021/07/27 02:22:59;;;;;;;8.68;3.92;;;15.90;99.90;;;;;;5074634;28;20031;-85
2021/07/27 02:25:24;;;;;;;8.80;3.95;;;15.90;99.90;;;;;;5075040;28;20025;-85
2021/07/27 02:27:50;;;;;;;9.05;4.72;;;15.90;99.90;;;;;;5074612;28;20484;-86
2021/07/27 02:30:16;;;;;;;7.20;4.15;;;15.90;99.90;;;;;;5073295;28;20477;-85
2021/07/27 02:32:43;;;;;;;7.88;4.20;;;15.90;99.90;;;;;;5074477;28;20354;-85
2021/07/27 02:35:09;;;;;;;11.43;5.25;;;15.90;99.90;;;;;;5073107;28;20048;-85
2021/07/27 02:37:36;;;;;;;8.52;3.92;;;15.90;99.90;;;;;;5073136;28;20107;-86
2021/07/27 02:40:06;;;;;;;9.65;4.10;;;15.80;99.90;;;;;;5074746;28;20025;-85
2021/07/27 02:42:32;;;;;;;6.75;3.75;;;15.80;99.90;;;;;;5080986;28;20020;-85
2021/07/27 02:44:57;;;;;;;7.82;4.35;;;15.80;99.90;;;;;;5095578;28;20084;-85
2021/07/27 02:47:24;;;;;;;8.98;4.53;;;15.80;99.90;;;;;;5095259;28;20024;-85
2021/07/27 02:49:53;;;;;;;10.32;4.20;;;15.80;99.90;;;;;;5092716;28;20028;-85
2021/07/27 02:52:19;;;;;;;13.23;4.68;;;15.80;99.90;;;;;;5094275;28;20789;-85
2021/07/27 02:54:45;;;;;;;8.30;4.30;;;15.90;99.90;;;;;;5094114;28;20028;-85
2021/07/27 02:57:10;;;;;;;9.23;3.83;;;15.90;99.90;;;;;;5097328;28;20081;-85
2021/07/27 02:59:36;;;;;;;7.50;4.32;;;15.90;99.90;;;;;;5091594;28;20032;-85
2021/07/27 03:02:01;;;;;;;7.03;4.20;;;15.90;99.90;;;;;;5074172;28;20539;-85
2021/07/27 03:04:27;;;;;;;9.75;4.50;;;15.90;99.90;;;;;;5074355;28;20032;-85
2021/07/27 03:06:53;;;;;;;9.07;4.65;;;15.80;99.90;;;;;;5075041;28;20029;-85
2021/07/27 03:09:24;;;;;;;8.60;4.68;;;15.80;99.90;;;;;;5073423;28;20033;-86
2021/07/27 03:11:50;;;;;;;10.55;4.40;;;15.80;99.90;;;;;;5075170;28;20452;-85
2021/07/27 03:14:19;;;;;;;7.43;4.03;;;15.80;99.90;;;;;;5073994;28;20029;-85
2021/07/27 03:16:45;;;;;;;8.15;4.28;;;15.90;99.90;;;;;;5090818;28;20042;-85
2021/07/27 03:19:10;;;;;;;8.20;4.35;;;15.90;99.90;;;;;;5090729;28;20020;-86
2021/07/27 03:21:36;;;;;;;8.35;4.40;;;15.90;99.90;;;;;;5075261;28;20078;-85
2021/07/27 03:24:02;;;;;;;8.73;4.35;;;15.90;99.90;;;;;;5074996;28;20024;-85
2021/07/27 03:26:27;;;;;;;10.98;4.50;;;15.80;99.90;;;;;;5090676;28;20020;-85
2021/07/27 03:28:53;;;;;;;6.75;4.40;;;15.80;99.90;;;;;;5075182;28;20023;-85
2021/07/27 03:31:19;;;;;;;8.13;4.57;;;15.70;99.90;;;;;;5075055;28;20139;-86
2021/07/27 03:33:45;;;;;;;10.23;4.65;;;15.70;99.90;;;;;;5074644;28;20059;-85
2021/07/27 03:36:11;;;;;;;7.60;4.93;;;15.70;99.90;;;;;;5073967;28;20028;-86
2021/07/27 03:38:38;;;;;;;8.20;4.60;;;15.70;99.90;;;;;;5074943;28;20028;-85
2021/07/27 03:41:05;;;;;;;8.10;4.65;;;15.80;99.90;;;;;;5074135;28;20127;-85
2021/07/27 03:43:31;;;;;;;7.25;4.70;;;15.70;99.90;;;;;;5074571;28;20039;-86
2021/07/27 03:45:57;;;;;;;6.97;4.35;;;15.70;99.90;;;;;;5091579;28;20037;-86
2021/07/27 03:48:23;;;;;;;10.52;5.10;;;15.70;99.90;;;;;;5074619;28;20024;-85
2021/07/27 03:50:49;;;;;;;10.70;4.47;;;15.70;99.90;;;;;;5083524;28;20031;-85
2021/07/27 03:53:16;;;;;;;9.00;4.80;;;15.80;99.90;;;;;;5087253;28;20400;-86
2021/07/27 03:55:42;;;;;;;6.85;4.85;;;15.80;99.90;;;;;;5078073;28;20020;-86
2021/07/27 03:58:08;;;;;;;7.95;4.50;;;15.80;99.90;;;;;;5092420;28;20028;-85
2021/07/27 04:00:34;;;;;;;8.05;3.95;;;15.80;99.90;;;;;;5075180;28;20397;-85
2021/07/27 04:03:04;;;;;;;7.47;4.68;;;15.80;99.90;;;;;;5073797;28;20082;-85
2021/07/27 04:05:31;;;;;;;7.53;4.47;;;15.80;99.90;;;;;;5076178;28;20081;-85
2021/07/27 04:07:56;;;;;;;12.25;4.60;;;15.80;99.90;;;;;;5093943;28;20101;-85
2021/07/27 04:10:22;;;;;;;10.40;5.15;;;15.90;99.90;;;;;;5094309;28;20475;-86
2021/07/27 04:12:50;;;;;;;9.45;4.60;;;15.80;99.90;;;;;;5093601;28;20066;-86
2021/07/27 04:15:16;;;;;;;8.40;4.30;;;15.80;99.90;;;;;;5092330;28;20036;-86
2021/07/27 04:17:42;;;;;;;7.68;4.65;;;15.80;99.90;;;;;;5091054;28;20405;-86
2021/07/27 04:20:08;;;;;;;8.55;4.72;;;15.80;99.90;;;;;;5095792;28;20028;-85
2021/07/27 04:22:33;;;;;;;11.80;4.70;;;15.70;99.90;;;;;;5093359;28;20027;-86
2021/07/27 04:24:59;;;;;;;7.07;4.43;;;15.70;99.90;;;;;;5072726;28;20021;-86
2021/07/27 04:27:25;;;;;;;9.25;3.97;;;15.80;99.90;;;;;;5074862;28;20025;-85
2021/07/27 04:29:52;;;;;;;9.45;4.57;;;15.70;99.90;;;;;;5073813;28;20028;-85
2021/07/27 04:32:17;;;;;;;14.45;4.93;;;15.70;99.90;;;;;;5076175;28;20032;-86
2021/07/27 04:34:43;;;;;;;9.10;4.38;;;15.60;99.90;;;;;;5075627;28;20028;-85
2021/07/27 04:37:08;;;;;;;10.23;4.60;;;15.50;99.90;;;;;;5082470;28;20035;-85
2021/07/27 04:39:35;;;;;;;9.85;5.95;;;15.60;99.90;;;;;;5077909;28;20028;-86
2021/07/27 04:42:01;;;;;;;10.10;4.85;;;15.60;99.90;;;;;;5078173;28;20033;-86
2021/07/27 04:44:27;;;;;;;7.93;4.28;;;15.70;99.90;;;;;;5084854;28;20031;-85
2021/07/27 04:46:53;;;;;;;8.45;4.68;;;15.80;99.90;;;;;;5073863;28;20028;-85
2021/07/27 04:49:18;;;;;;;7.07;4.22;;;15.70;99.90;;;;;;5078759;28;20111;-85
2021/07/27 04:51:44;;;;;;;10.20;4.70;;;15.80;99.90;;;;;;5089006;28;20078;-86
2021/07/27 04:54:16;;;;;;;9.75;5.10;;;15.90;99.90;;;;;;5089914;28;20611;-85
2021/07/27 04:56:42;;;;;;;11.63;4.90;;;15.80;99.90;;;;;;5084186;28;20060;-85
2021/07/27 04:59:07;;;;;;;9.80;5.30;;;15.80;99.90;;;;;;5075480;28;20028;-85
2021/07/27 05:01:33;;;;;;;9.25;4.57;;;15.80;99.90;;;;;;5076910;28;20029;-88
2021/07/27 05:03:58;;;;;;;7.82;5.10;;;15.90;99.90;;;;;;5091982;28;20024;-85
2021/07/27 05:06:24;;;;;;;11.18;5.03;;;16.00;99.90;;;;;;5093112;28;20032;-86
2021/07/27 05:08:50;;;;;;;8.10;4.95;;;16.00;99.90;;;;;;5097558;28;20040;-85
2021/07/27 05:11:16;;;;;;;9.93;4.90;;;16.10;99.90;;;;;;5092930;28;20024;-85
2021/07/27 05:13:41;;;;;;;10.00;4.93;;;16.10;99.90;;;;;;5092121;28;20078;-85
2021/07/27 05:16:07;;;;;;;8.32;4.82;;;16.20;99.90;;;;;;5091800;28;20081;-85
2021/07/27 05:18:33;;;;;;;9.48;5.28;;;16.20;99.90;;;;;;5088368;28;20036;-86
2021/07/27 05:20:58;;;;;;;11.63;4.75;;;16.40;99.90;;;;;;5082335;28;20091;-84
2021/07/27 05:23:24;;;;;;;8.13;4.40;;;16.50;99.90;;;;;;5079437;28;20036;-84
2021/07/27 05:25:50;;;;;;;9.30;4.30;;;16.60;99.90;;;;;;5080431;28;20103;-84
2021/07/27 05:28:15;;;;;;;6.15;4.03;;;16.70;99.90;;;;;;5078030;28;20008;-85
2021/07/27 05:30:41;;;;;;;9.75;4.80;;;16.80;99.90;;;;;;5090416;28;20032;-85
2021/07/27 05:33:07;;;;;;;10.90;4.63;;;16.90;99.90;;;;;;5074354;28;20039;-84
2021/07/27 05:35:33;;;;;;;7.05;4.43;;;17.00;99.90;;;;;;5085963;28;20055;-85
2021/07/27 05:37:58;;;;;;;8.88;4.72;;;17.10;99.90;;;;;;5083436;28;20396;-84
2021/07/27 05:40:24;;;;;;;9.40;5.07;;;17.30;99.90;;;;;;5074484;28;20063;-84
2021/07/27 05:42:49;;;;;;;7.22;4.63;;;17.20;99.90;;;;;;5081612;28;20032;-84
2021/07/27 05:45:15;;;;;;;9.45;4.07;;;17.30;99.90;;;;;;5077140;28;20063;-84
2021/07/27 05:47:41;;;;;;;6.68;4.00;;;17.30;99.90;;;;;;5073020;28;20024;-84
2021/07/27 05:50:09;;;;;;;9.70;4.10;;;17.30;99.90;;;;;;5079052;28;20396;-84
2021/07/27 05:52:35;;;;;;;10.07;4.50;;;17.30;99.90;;;;;;5077580;28;20024;-84
2021/07/27 05:55:01;;;;;;;7.10;4.57;;;17.30;99.90;;;;;;5079178;28;20085;-84
2021/07/27 05:57:26;;;;;;;10.35;4.65;;;17.20;99.90;;;;;;5085103;28;20028;-84
2021/07/27 05:59:52;;;;;;;13.50;4.75;;;17.20;99.90;;;;;;5085834;28;20028;-84
2021/07/27 06:02:21;;;;;;;7.60;4.28;;;17.20;99.90;;;;;;5075783;28;20036;-84
2021/07/27 06:04:46;;;;;;;9.55;4.40;;;17.40;99.90;;;;;;5075533;28;20025;-84
2021/07/27 06:07:12;;;;;;;12.60;4.57;;;17.50;99.90;;;;;;5080789;28;20373;-84
2021/07/27 06:09:38;;;;;;;9.55;4.50;;;17.70;99.90;;;;;;5085062;28;20024;-84
2021/07/27 06:12:04;;;;;;;10.50;4.45;;;17.80;99.90;;;;;;5083117;28;20026;-83
2021/07/27 06:14:30;;;;;;;9.38;4.22;;;18.00;99.90;;;;;;5074418;28;20075;-84
2021/07/27 06:16:55;;;;;;;9.00;5.22;;;18.20;99.90;;;;;;5088228;28;20059;-84
2021/07/27 06:19:23;;;;;;;8.05;4.72;;;18.30;99.90;;;;;;5070943;28;20032;-83
2021/07/27 06:21:49;;;;;;;10.00;4.82;;;18.40;99.90;;;;;;5073698;28;20048;-81
2021/07/27 06:24:16;;;;;;;7.05;4.20;;;18.30;99.90;;;;;;5091185;28;20032;-82
2021/07/27 06:26:42;;;;;;;9.68;4.53;;;18.30;99.90;;;;;;5085300;28;20025;-82
2021/07/27 06:29:08;;;;;;;7.93;4.57;;;18.50;99.90;;;;;;5070267;28;20399;-81
2021/07/27 06:31:34;;;;;;;8.70;4.40;;;18.60;99.90;;;;;;5075481;28;20024;-84
2021/07/27 06:34:00;;;;;;;9.68;4.15;;;18.50;99.90;;;;;;5075542;28;20400;-84
2021/07/27 06:36:28;;;;;;;7.85;4.45;;;18.70;99.90;;;;;;5086744;28;20492;-84
2021/07/27 06:38:54;;;;;;;9.35;4.78;;;18.60;99.90;;;;;;5083319;28;20029;-83
2021/07/27 06:41:19;;;;;;;8.73;5.18;;;18.20;99.90;;;;;;5087843;28;20021;-83
2021/07/27 06:43:45;;;;;;;9.50;5.07;;;18.20;99.90;;;;;;5092117;28;20073;-85
2021/07/27 06:46:11;;;;;;;8.23;4.82;;;18.20;99.90;;;;;;5089476;28;20024;-85
2021/07/27 06:48:38;;;;;;;7.45;4.63;;;18.30;99.90;;;;;;5092766;28;20440;-85
2021/07/27 06:51:12;;;;;;;9.38;4.40;;;18.30;99.90;;;;;;5095424;28;20091;-85
2021/07/27 06:53:38;;;;;;;8.25;4.45;;;18.30;99.90;;;;;;5094568;28;20066;-85
2021/07/27 06:56:06;;;;;;;11.68;5.05;;;18.30;99.90;;;;;;5095668;28;20088;-86
2021/07/27 06:58:32;;;;;;;8.88;4.65;;;18.40;99.90;;;;;;5094657;28;20109;-87
2021/07/27 07:01:06;;;;;;;12.18;4.88;;;18.40;99.90;;;;;;5091502;28;20085;-87
2021/07/27 07:03:35;;;;;;;9.65;5.07;;;18.30;99.90;;;;;;5095374;28;20075;-87
2021/07/27 07:06:00;;;;;;;13.00;4.63;;;18.50;99.90;;;;;;5095311;28;20082;-87
2021/07/27 07:08:29;;;;;;;11.25;4.88;;;18.70;99.90;;;;;;5094272;28;20020;-87
2021/07/27 07:10:59;;;;;;;10.05;4.57;;;18.90;99.90;;;;;;5094047;28;20039;-87
2021/07/27 07:13:26;;;;;;;10.07;4.72;;;19.10;99.90;;;;;;5076465;28;20032;-85
2021/07/27 07:15:53;;;;;;;9.15;4.80;;;19.30;99.90;;;;;;5077698;28;20392;-87
2021/07/27 07:18:22;;;;;;;9.25;4.65;;;19.30;99.90;;;;;;5099490;28;20027;-87
2021/07/27 07:20:51;;;;;;;6.72;4.28;;;19.50;99.90;;;;;;5099511;28;20609;-87
2021/07/27 07:23:21;;;;;;;9.75;4.63;;;19.40;99.90;;;;;;5079992;28;20111;-87
2021/07/27 07:25:49;;;;;;;7.32;4.03;;;19.30;99.90;;;;;;5074392;28;20028;-86
2021/07/27 07:28:15;;;;;;;9.32;4.57;;;19.40;99.90;;;;;;5092922;28;20019;-87
2021/07/27 07:30:42;;;;;;;8.73;3.95;;;19.40;99.90;;;;;;5092335;28;20031;-87
2021/07/27 07:33:09;;;;;;;10.75;4.90;;;19.40;99.90;;;;;;5090339;28;20507;-87
2021/07/27 07:35:36;;;;;;;8.35;4.30;;;19.40;99.90;;;;;;5096130;28;20032;-87
2021/07/27 07:38:02;;;;;;;6.65;4.10;;;19.60;99.90;;;;;;5094052;28;20403;-87
2021/07/27 07:40:28;;;;;;;8.18;4.40;;;19.70;99.90;;;;;;5093372;28;20152;-87
2021/07/27 07:43:00;;;;;;;7.18;4.00;;;19.70;99.90;;;;;;5087877;28;20024;-85
2021/07/27 07:45:26;;;;;;;8.98;3.97;;;19.60;99.90;;;;;;5095330;28;20396;-87
2021/07/27 07:47:52;;;;;;;7.70;4.07;;;19.70;99.90;;;;;;5093643;28;20012;-86
2021/07/27 07:50:18;;;;;;;9.05;4.53;;;19.80;99.90;;;;;;5093224;28;20024;-87
2021/07/27 07:52:43;;;;;;;8.52;3.80;;;20.10;99.90;;;;;;5093572;28;20441;-87
2021/07/27 07:55:10;;;;;;;8.57;4.13;;;20.20;99.90;;;;;;5093605;28;20020;-87
2021/07/27 07:57:39;;;;;;;7.65;4.07;;;20.30;99.90;;;;;;5094555;28;20789;-86
2021/07/27 08:00:06;;;;;;;8.35;4.10;;;20.70;99.90;;;;;;5089417;28;20029;-86
2021/07/27 08:02:31;;;;;;;11.05;4.10;;;21.00;99.90;;;;;;5082366;28;20411;-86
2021/07/27 08:04:57;;;;;;;6.60;4.00;;;21.30;99.90;;;;;;5094988;28;20028;-87
2021/07/27 08:07:24;;;;;;;6.65;3.75;;;21.60;99.90;;;;;;5093793;28;20038;-87
2021/07/27 08:09:50;;;;;;;7.65;4.18;;;21.70;99.90;;;;;;5092439;28;20032;-87
2021/07/27 08:12:18;;;;;;;6.93;3.58;;;21.80;99.90;;;;;;5093072;28;20119;-87
2021/07/27 08:14:44;;;;;;;8.35;3.67;;;21.90;99.90;;;;;;5092864;28;20028;-85
2021/07/27 08:17:12;;;;;;;7.85;4.00;;;22.10;99.90;;;;;;5093341;28;20024;-86
2021/07/27 08:19:40;;;;;;;6.18;3.90;;;22.10;99.90;;;;;;5090275;28;20143;-87
2021/07/27 08:22:06;;;;;;;6.35;3.97;;;22.20;99.90;;;;;;5073046;28;20078;-87
2021/07/27 08:24:33;;;;;;;7.78;3.97;;;22.20;99.90;;;;;;5089531;28;20028;-87
2021/07/27 08:26:59;;;;;;;7.68;3.33;;;22.10;99.90;;;;;;5088390;28;20028;-86
2021/07/27 08:29:26;;;;;;;7.85;3.53;;;22.10;99.90;;;;;;5080422;28;20019;-86
2021/07/27 08:31:52;;;;;;;6.82;3.67;;;22.30;99.90;;;;;;5101304;28;20507;-86
2021/07/27 08:34:18;;;;;;;7.28;3.85;;;22.30;99.90;;;;;;5090247;28;20131;-86
2021/07/27 08:36:45;;;;;;;5.03;3.40;;;22.20;99.90;;;;;;5075280;28;20151;-86
2021/07/27 08:39:11;;;;;;;6.22;3.67;;;22.30;99.90;;;;;;5077041;28;20654;-86
2021/07/27 08:41:39;;;;;;;6.00;3.95;;;22.20;99.90;;;;;;5078796;28;20104;-86
2021/07/27 08:44:16;;;;;;;7.63;3.60;;;22.20;99.90;;;;;;5076892;28;20016;-86
2021/07/27 08:46:42;;;;;;;6.18;4.13;;;22.20;99.90;;;;;;5082164;28;20028;-85
2021/07/27 08:49:08;;;;;;;6.07;3.85;;;21.90;99.90;;;;;;5091824;28;20079;-86
2021/07/27 08:51:34;;;;;;;7.07;3.70;;;21.90;99.90;;;;;;5092980;28;20491;-86
2021/07/27 08:53:59;;;;;;;7.15;3.60;;;22.20;99.90;;;;;;5086999;28;20029;-86
2021/07/27 08:56:25;;;;;;;6.93;3.30;;;22.30;99.90;;;;;;5088109;28;20039;-86
2021/07/27 08:58:50;;;;;;;6.57;3.70;;;22.40;99.90;;;;;;5090382;28;20047;-86
2021/07/27 09:01:26;;;;;;;9.45;3.70;;;22.60;99.90;;;;;;5084540;28;20032;-85
2021/07/27 09:03:52;;;;;;;7.22;3.53;;;22.90;99.90;;;;;;5071576;28;20119;-86
2021/07/27 09:06:22;;;;;;;6.75;3.78;;;23.00;99.90;;;;;;5070833;28;20048;-85
2021/07/27 09:08:48;;;;;;;6.07;3.50;;;23.20;99.90;;;;;;5070847;28;20028;-85
2021/07/27 09:11:16;;;;;;;7.70;3.80;;;23.30;99.90;;;;;;5086331;28;20025;-85
2021/07/27 09:13:56;;;;;;;6.60;3.47;;;23.30;99.90;;;;;;5072165;28;20052;-85
2021/07/27 09:16:22;;;;;;;7.72;3.58;;;23.40;99.90;;;;;;5087905;28;20020;-86
2021/07/27 09:18:58;;;;;;;9.23;4.30;;;23.70;99.90;;;;;;5085869;28;20093;-85
2021/07/27 09:21:24;;;;;;;6.28;3.92;;;23.80;99.90;;;;;;5073748;28;20465;-86
2021/07/27 09:23:50;;;;;;;6.78;4.35;;;23.90;99.90;;;;;;5073932;28;20044;-86
2021/07/27 09:26:16;;;;;;;6.47;4.05;;;24.10;99.90;;;;;;5071422;28;20077;-86
2021/07/27 09:28:42;;;;;;;6.72;3.83;;;24.20;99.90;;;;;;5072150;28;20272;-85
2021/07/27 09:31:07;;;;;;;5.35;3.72;;;24.30;99.90;;;;;;5070717;28;20622;-85
2021/07/27 09:33:34;;;;;;;5.50;3.35;;;23.90;99.90;;;;;;5070562;28;20495;-86
2021/07/27 09:36:01;;;;;;;6.28;3.63;;;24.00;99.90;;;;;;5085068;28;20032;-86
2021/07/27 09:38:29;;;;;;;7.03;3.67;;;24.00;99.90;;;;;;5090439;28;20097;-85
2021/07/27 09:41:00;;;;;;;5.20;3.50;;;24.20;99.90;;;;;;5091685;28;20028;-85
2021/07/27 09:43:26;;;;;;;;;;;24.50;99.90;;;;;;5080948;28;20033;-86
2021/07/27 09:45:55;;;;;;;4.65;3.35;;;24.60;99.90;;;;;;5070194;28;19995;-85
2021/07/27 09:48:21;;;;;;;7.90;3.72;;;24.70;99.90;;;;;;5069840;28;20046;-86
2021/07/27 09:50:49;;;;;;;6.18;3.40;;;24.90;99.90;;;;;;5074258;28;20016;-85
2021/07/27 09:53:15;;;;;;;5.20;3.08;;;25.20;99.90;;;;;;5070217;28;20028;-86
2021/07/27 09:55:41;;;;;;;4.80;2.80;;;25.20;99.90;;;;;;5071299;28;20029;-86
2021/07/27 09:58:07;;;;;;;6.53;3.03;;;25.50;99.90;;;;;;5071201;28;20051;-86
2021/07/27 10:00:42;;;;;;;6.95;3.08;;;25.60;99.90;;;;;;5101947;28;20031;-86
2021/07/27 10:03:12;;;;;;;6.18;3.20;;;25.20;99.90;;;;;;5070264;28;20128;-86
2021/07/27 10:05:38;;;;;;;6.20;3.20;;;24.90;99.90;;;;;;5070288;28;20049;-86
2021/07/27 10:08:04;;;;;;;5.10;3.10;;;24.90;99.90;;;;;;5069934;28;20476;-86
2021/07/27 10:10:43;;;;;;;4.80;3.00;;;24.90;99.90;;;;;;5070551;28;20178;-86
2021/07/27 10:13:11;;;;;;;4.97;3.10;;;25.10;99.90;;;;;;5070421;28;20028;-86
2021/07/27 10:15:41;;;;;;;6.07;3.00;;;25.60;99.90;;;;;;5070195;28;20025;-86
2021/07/27 10:18:09;;;;;;;6.65;3.15;;;25.80;99.90;;;;;;5069735;28;20496;-86
2021/07/27 10:20:35;;;;;;;4.93;2.80;;;26.00;99.90;;;;;;5071031;28;20036;-86
2021/07/27 10:23:12;;;;;;;7.40;3.00;;;26.00;99.90;;;;;;5069711;28;20028;-86
2021/07/27 10:25:38;;;;;;;5.00;2.60;;;26.20;99.90;;;;;;5073865;28;20047;-86
2021/07/27 10:28:03;;;;;;;4.95;3.17;;;26.60;99.90;;;;;;5073828;28;20021;-87
2021/07/27 10:30:33;;;;;;;4.82;2.55;;;26.70;99.50;;;;;;5075106;28;20495;-86
2021/07/27 10:32:59;;;;;;;4.43;2.55;;;27.10;99.60;;;;;;5075317;28;20493;-86
2021/07/27 10:35:30;;;;;;;7.85;3.05;;;27.10;98.30;;;;;;5074559;28;20029;-86
2021/07/27 10:38:07;;;;;;;4.80;2.90;;;27.20;98.70;;;;;;5075339;28;20504;-86
2021/07/27 10:40:33;;;;;;;5.20;2.83;;;27.50;98.40;;;;;;5074291;28;20132;-86
2021/07/27 10:42:58;;;;;;;4.78;2.55;;;27.50;96.90;;;;;;5074728;28;20362;-86
2021/07/27 10:45:26;;;;;;;6.68;2.72;;;27.50;98.50;;;;;;5072954;28;20060;-86
2021/07/27 10:47:53;;;;;;;6.70;3.20;;;27.20;98.30;;;;;;5093518;28;20028;-87
2021/07/27 10:50:31;;;;;;;6.72;2.75;;;27.20;97.30;;;;;;5093613;28;20031;-87
2021/07/27 10:53:02;;;;;;;5.55;2.67;;;27.10;97.60;;;;;;5093688;28;20035;-86
2021/07/27 10:55:28;;;;;;;5.78;2.72;;;26.70;97.70;;;;;;5089630;28;20025;-86
2021/07/27 10:57:56;;;;;;;7.57;2.95;;;26.40;98.80;;;;;;5073964;28;20036;-86
2021/07/27 11:00:35;;;;;;;6.40;2.53;;;26.70;99.20;;;;;;5102157;28;20143;-86
2021/07/27 11:03:02;;;;;;;6.55;2.85;;;27.00;97.40;;;;;;5114977;28;20043;-86
2021/07/27 11:05:30;;;;;;;4.93;2.40;;;27.00;97.50;;;;;;5087340;28;20028;-86
2021/07/27 11:07:56;;;;;;;4.78;2.70;;;26.70;96.00;;;;;;5072830;28;20507;-86
2021/07/27 11:10:23;;;;;;;6.05;2.78;;;26.80;96.30;;;;;;5073929;28;20024;-86
2021/07/27 11:12:50;;;;;;;4.47;2.70;;;27.10;96.40;;;;;;5072557;28;20030;-86
2021/07/27 11:15:20;;;;;;;4.55;2.63;;;27.20;94.60;;;;;;5074045;28;20107;-86
2021/07/27 11:17:58;;;;;;;4.65;2.95;;;27.00;94.30;;;;;;5076173;28;20027;-86
2021/07/27 11:20:38;;;;;;;4.85;2.92;;;27.20;95.30;;;;;;5076525;28;20107;-86
2021/07/27 11:23:06;;;;;;;5.43;2.50;;;27.40;95.40;;;;;;5083834;28;20035;-86
2021/07/27 11:25:32;;;;;;;5.13;2.75;;;27.70;95.70;;;;;;5094608;28;20035;-85
2021/07/27 11:28:08;;;;;;;4.15;2.28;;;27.60;95.60;;;;;;5092359;28;20027;-86
2021/07/27 11:30:35;;;;;;;6.35;2.83;;;27.30;94.20;;;;;;5072997;28;20028;-87
2021/07/27 11:33:27;;;;;;;4.88;2.83;;;27.50;93.80;;;;;;5071063;28;20096;-86
2021/07/27 11:35:54;;;;;;;4.53;2.70;;;27.50;93.50;;;;;;5067044;28;20035;-86
2021/07/27 11:38:22;;;;;;;6.22;2.88;;;27.10;93.70;;;;;;5082952;28;20031;-86
2021/07/27 11:41:08;;;;;;;3.88;2.25;;;27.10;94.80;;;;;;5092842;28;20567;-87
2021/07/27 11:43:38;;;;;;;5.30;2.50;;;27.30;95.20;;;;;;5092230;28;20028;-87
2021/07/27 11:46:09;;;;;;;4.43;2.20;;;27.50;95.30;;;;;;5088819;28;20029;-87
2021/07/27 11:48:35;;;;;;;3.97;2.40;;;27.70;93.60;;;;;;5072655;28;20381;-87
2021/07/27 11:51:02;;;;;;;3.63;2.17;;;27.80;93.40;;;;;;5081812;28;20059;-86
2021/07/27 11:53:39;;;;;;;4.60;2.20;;;27.60;92.00;;;;;;5086348;28;20560;-85
2021/07/27 11:56:13;;;;;;;3.05;1.73;;;27.40;92.00;;;;;;5093841;28;20043;-87
2021/07/27 11:58:39;;;;;;;4.50;2.33;;;27.20;92.40;;;;;;5083382;28;20017;-85
2021/07/27 12:01:05;;;;;;;4.45;2.05;;;27.00;93.70;;;;;;5085014;28;20078;-86
2021/07/27 12:03:30;;;;;;;4.00;2.00;;;26.80;93.40;;;;;;5076803;28;20028;-85
2021/07/27 12:05:57;;;;;;;5.53;2.20;;;26.60;92.40;;;;;;5075869;28;20103;-87
2021/07/27 12:08:23;;;;;;;3.53;2.10;;;26.50;91.60;;;;;;5078513;28;20354;-87
2021/07/27 12:10:48;;;;;;;3.83;2.00;;;26.50;93.40;;;;;;5074229;28;20027;-88
2021/07/27 12:13:14;;;;;;;4.10;1.88;;;26.50;93.30;;;;;;5078912;28;20029;-87
2021/07/27 12:15:40;;;;;;;4.38;2.10;;;26.50;93.30;;;;;;5079877;28;20401;-85
2021/07/27 12:18:06;;;;;;;6.35;2.17;;;26.50;94.40;;;;;;5076148;28;20012;-86
2021/07/27 12:20:31;;;;;;;4.38;2.20;;;26.00;93.00;;;;;;5077840;28;20020;-86
2021/07/27 12:22:57;;;;;;;4.22;2.25;;;26.20;91.90;;;;;;5081792;28;20032;-89
2021/07/27 12:25:22;;;;;;;4.05;2.08;;;26.30;93.10;;;;;;5078546;28;20027;-85
2021/07/27 12:27:49;;;;;;;5.78;2.28;;;26.20;92.80;;;;;;5080478;28;20165;-87
2021/07/27 12:30:15;;;;;;;3.78;2.20;;;26.30;94.10;;;;;;5078373;28;20039;-86
2021/07/27 12:32:40;;;;;;;6.35;2.67;;;26.30;93.80;;;;;;5074271;28;20025;-87
2021/07/27 12:35:06;;;;;;;4.70;2.47;;;26.50;91.90;;;;;;5075620;28;20027;-87
2021/07/27 12:37:36;;;;;;;4.90;2.17;;;26.90;94.40;;;;;;5074821;28;20161;-87
2021/07/27 12:40:05;;;;;;;4.15;2.13;;;27.40;93.40;;;;;;5074938;28;20053;-88
2021/07/27 12:42:30;;;;;;;3.30;1.80;;;27.70;92.40;;;;;;5080100;28;20022;-87
2021/07/27 12:44:56;;;;;;;3.80;2.15;;;27.90;91.90;;;;;;5073909;28;20128;-88
2021/07/27 12:47:22;;;;;;;4.75;2.33;;;28.00;90.50;;;;;;5078584;28;20519;-88
2021/07/27 12:49:48;;;;;;;5.47;2.22;;;28.30;90.10;;;;;;5075208;28;20364;-88
2021/07/27 12:52:14;;;;;;;3.20;2.03;;;28.70;90.10;;;;;;5075327;28;20035;-88
2021/07/27 12:54:40;;;;;;;4.30;2.05;;;28.90;88.20;;;;;;5075929;28;20123;-87
2021/07/27 12:57:06;;;;;;;3.38;1.88;;;29.30;89.80;;;;;;5082704;28;20020;-87
2021/07/27 12:59:32;;;;;;;4.35;2.60;;;29.20;90.90;;;;;;5076884;28;20013;-87
2021/07/27 13:01:58;;;;;;;3.90;1.88;;;29.40;90.30;;;;;;5078554;28;20028;-88
2021/07/27 13:04:24;;;;;;;4.55;2.38;;;29.50;91.10;;;;;;5084970;28;20032;-88
2021/07/27 13:06:50;;;;;;;4.78;2.35;;;29.90;90.80;;;;;;5082282;28;20113;-88